createdAt,value
2018-08-18T00:00:19.015Z,4.10
2018-08-18T00:01:18.979Z,4.30
2018-08-18T00:02:18.877Z,3.90
2018-08-18T00:03:18.781Z,4.00
2018-08-18T00:04:18.707Z,4.30
2018-08-18T00:05:18.628Z,4.00
2018-08-18T00:06:18.569Z,4.40
2018-08-18T00:07:18.481Z,4.10
2018-08-18T00:08:18.383Z,4.10
2018-08-18T00:09:18.330Z,4.00
2018-08-18T00:10:18.226Z,3.90
2018-08-18T00:11:18.153Z,3.90
2018-08-18T00:12:18.062Z,3.80
2018-08-18T00:15:00.365Z,4.00
2018-08-18T00:16:00.264Z,4.20
2018-08-18T00:17:00.195Z,3.90
2018-08-18T00:19:42.344Z,4.30
2018-08-18T00:20:42.270Z,4.20
2018-08-18T00:21:42.180Z,3.70
2018-08-18T00:22:43.137Z,4.00
2018-08-18T00:23:42.029Z,4.00
2018-08-18T00:26:23.840Z,4.00
2018-08-18T00:27:23.770Z,3.80
2018-08-18T00:28:23.710Z,4.10
2018-08-18T00:31:05.839Z,3.90
2018-08-18T00:32:05.772Z,4.10
2018-08-18T00:33:05.705Z,4.10
2018-08-18T00:34:05.616Z,3.90
2018-08-18T00:35:05.527Z,3.80
2018-08-18T00:36:05.443Z,4.00
2018-08-18T00:37:05.360Z,4.00
2018-08-18T00:38:05.303Z,4.00
2018-08-18T00:39:05.221Z,3.90
2018-08-18T00:40:05.136Z,4.10
2018-08-18T00:41:05.056Z,3.80
2018-08-18T00:42:04.974Z,4.10
2018-08-18T00:43:04.911Z,4.40
2018-08-18T00:44:04.814Z,3.90
2018-08-18T00:45:04.730Z,4.10
2018-08-18T00:46:04.663Z,4.30
2018-08-18T00:47:04.582Z,4.00
2018-08-18T00:48:04.529Z,4.20
2018-08-18T00:49:04.429Z,4.10
2018-08-18T00:51:46.349Z,4.30
2018-08-18T00:54:28.366Z,4.00
2018-08-18T00:55:28.272Z,4.50
2018-08-18T00:56:28.197Z,4.10
2018-08-18T00:59:10.368Z,4.70
2018-08-18T01:00:10.298Z,5.00
2018-08-18T01:01:10.187Z,4.60
2018-08-18T01:02:10.112Z,4.70
2018-08-18T01:03:10.039Z,4.50
2018-08-18T01:04:09.980Z,5.30
2018-08-18T01:05:09.890Z,4.80
2018-08-18T01:07:51.848Z,4.20
2018-08-18T01:08:51.815Z,4.80
2018-08-18T01:09:51.695Z,4.50
2018-08-18T01:10:51.681Z,4.00
2018-08-18T01:11:51.564Z,4.70
2018-08-18T01:12:51.518Z,4.90
2018-08-18T01:13:51.503Z,4.60
2018-08-18T01:14:51.380Z,4.60
2018-08-18T01:15:51.263Z,4.60
2018-08-18T01:16:51.142Z,4.60
2018-08-18T01:17:51.064Z,4.70
2018-08-18T01:18:50.993Z,4.70
2018-08-18T01:19:50.930Z,4.50
2018-08-18T01:20:50.830Z,4.90
2018-08-18T01:21:50.729Z,4.70
2018-08-18T01:24:32.895Z,4.70
2018-08-18T01:25:32.782Z,4.70
2018-08-18T01:26:32.721Z,5.10
2018-08-18T01:27:32.629Z,5.00
2018-08-18T01:28:32.538Z,5.30
2018-08-18T01:29:32.496Z,5.30
2018-08-18T01:30:32.378Z,5.30
2018-08-18T01:31:32.305Z,5.40
2018-08-18T01:32:32.218Z,5.10
2018-08-18T01:35:14.391Z,5.20
2018-08-18T01:36:14.287Z,5.00
2018-08-18T01:37:14.202Z,5.20
2018-08-18T01:38:14.127Z,5.00
2018-08-18T01:39:14.038Z,5.80
2018-08-18T01:40:13.966Z,5.30
2018-08-18T01:41:13.909Z,4.70
2018-08-18T01:42:13.805Z,4.90
2018-08-18T01:43:13.726Z,5.30
2018-08-18T01:45:55.890Z,5.20
2018-08-18T01:46:55.789Z,5.10
2018-08-18T01:47:55.716Z,5.00
2018-08-18T01:50:37.934Z,5.30
2018-08-18T01:51:37.784Z,4.90
2018-08-18T01:52:37.707Z,5.60
2018-08-18T01:53:37.650Z,4.90
2018-08-18T01:54:37.557Z,4.70
2018-08-18T01:55:37.486Z,5.30
2018-08-18T01:56:37.388Z,4.90
2018-08-18T01:57:37.332Z,5.20
2018-08-18T01:58:37.233Z,5.80
2018-08-18T01:59:37.153Z,5.10
2018-08-18T02:00:37.060Z,5.10
2018-08-18T02:01:38.010Z,4.70
2018-08-18T02:02:36.905Z,5.00
2018-08-18T02:03:36.839Z,4.90
2018-08-18T02:04:36.741Z,5.30
2018-08-18T02:05:36.682Z,5.10
2018-08-18T02:06:36.586Z,4.40
2018-08-18T02:07:36.547Z,4.40
2018-08-18T02:08:36.433Z,4.80
2018-08-18T02:09:36.351Z,4.90
2018-08-18T02:10:36.261Z,4.60
2018-08-18T02:13:18.388Z,4.60
2018-08-18T02:14:18.290Z,5.00
2018-08-18T02:15:18.223Z,4.90
2018-08-18T02:16:18.135Z,4.80
2018-08-18T02:17:18.048Z,4.90
2018-08-18T02:18:18.017Z,5.10
2018-08-18T02:19:17.903Z,5.70
2018-08-18T02:20:17.815Z,5.30
2018-08-18T02:21:17.744Z,5.40
2018-08-18T02:22:17.654Z,5.10
2018-08-18T02:23:17.576Z,5.30
2018-08-18T02:24:17.520Z,5.40
2018-08-18T02:25:17.415Z,6.10
2018-08-18T02:27:59.393Z,5.70
2018-08-18T02:28:59.317Z,5.10
2018-08-18T02:29:59.229Z,5.60
2018-08-18T02:30:59.150Z,5.00
2018-08-18T02:31:59.066Z,5.00
2018-08-18T02:32:58.984Z,5.30
2018-08-18T02:33:58.916Z,5.60
2018-08-18T02:34:58.814Z,5.90
2018-08-18T02:35:58.745Z,5.60
2018-08-18T02:36:58.678Z,6.00
2018-08-18T02:37:58.571Z,5.70
2018-08-18T02:38:58.596Z,5.90
2018-08-18T02:39:58.439Z,5.40
2018-08-18T02:40:58.334Z,5.50
2018-08-18T02:41:58.274Z,6.10
2018-08-18T02:42:58.185Z,5.80
2018-08-18T02:43:58.133Z,5.40
2018-08-18T02:44:58.039Z,5.70
2018-08-18T02:45:57.941Z,6.30
2018-08-18T02:46:57.856Z,5.70
2018-08-18T02:47:57.779Z,5.90
2018-08-18T02:48:57.703Z,5.40
2018-08-18T02:49:57.638Z,5.90
2018-08-18T02:52:39.875Z,5.60
2018-08-18T02:55:21.911Z,6.10
2018-08-18T02:58:03.888Z,6.20
2018-08-18T02:59:03.819Z,6.00
2018-08-18T03:00:03.746Z,6.00
2018-08-18T03:02:45.882Z,6.20
2018-08-18T03:03:45.813Z,5.80
2018-08-18T03:04:45.739Z,6.30
2018-08-18T03:07:27.887Z,5.90
2018-08-18T03:10:09.908Z,6.60
2018-08-18T03:11:09.810Z,6.40
2018-08-18T03:12:09.732Z,6.50
2018-08-18T03:13:09.656Z,6.40
2018-08-18T03:14:09.570Z,6.00
2018-08-18T03:15:10.508Z,7.00
2018-08-18T03:16:09.411Z,6.20
2018-08-18T03:17:09.347Z,7.00
2018-08-18T03:18:09.245Z,6.60
2018-08-18T03:19:09.177Z,7.40
2018-08-18T03:20:09.104Z,6.80
2018-08-18T03:21:09.011Z,7.00
2018-08-18T03:22:08.934Z,6.20
2018-08-18T03:23:08.882Z,6.50
2018-08-18T03:24:08.762Z,6.70
2018-08-18T03:25:08.712Z,7.00
2018-08-18T03:26:08.609Z,6.70
2018-08-18T03:27:08.536Z,6.60
2018-08-18T03:28:08.443Z,6.50
2018-08-18T03:29:08.436Z,6.70
2018-08-18T03:30:08.313Z,6.40
2018-08-18T03:32:50.400Z,6.90
2018-08-18T03:33:50.344Z,7.60
2018-08-18T03:34:50.225Z,7.20
2018-08-18T03:35:51.186Z,7.30
2018-08-18T03:36:50.092Z,7.50
2018-08-18T03:37:50.200Z,7.30
2018-08-18T03:38:50.194Z,6.90
2018-08-18T03:39:50.506Z,6.80
2018-08-18T03:40:49.772Z,7.00
2018-08-18T03:41:50.702Z,7.40
2018-08-18T03:42:49.596Z,7.60
2018-08-18T03:43:49.523Z,8.00
2018-08-18T03:44:49.423Z,7.30
2018-08-18T03:45:49.349Z,7.00
2018-08-18T03:46:49.288Z,7.40
2018-08-18T03:47:49.190Z,7.40
2018-08-18T03:48:49.109Z,7.30
2018-08-18T03:49:49.039Z,6.80
2018-08-18T03:50:48.958Z,6.60
2018-08-18T03:51:48.889Z,7.20
2018-08-18T03:52:48.787Z,7.20
2018-08-18T03:53:48.721Z,6.50
2018-08-18T03:54:48.636Z,6.80
2018-08-18T03:55:48.561Z,7.20
2018-08-18T03:56:48.488Z,6.70
2018-08-18T03:57:48.388Z,6.90
2018-08-18T03:58:48.311Z,7.00
2018-08-18T03:59:48.227Z,7.10
2018-08-18T04:00:48.153Z,7.40
2018-08-18T04:01:48.153Z,7.70
2018-08-18T04:02:48.106Z,7.40
2018-08-18T04:03:47.919Z,7.40
2018-08-18T04:04:47.818Z,7.60
2018-08-18T04:05:47.761Z,7.50
2018-08-18T04:06:47.664Z,7.30
2018-08-18T04:07:47.613Z,6.60
2018-08-18T04:08:47.500Z,7.10
2018-08-18T04:09:47.432Z,6.90
2018-08-18T04:10:47.352Z,7.30
2018-08-18T04:11:47.307Z,7.20
2018-08-18T04:12:47.207Z,7.20
2018-08-18T04:15:29.404Z,7.80
2018-08-18T04:16:29.343Z,8.30
2018-08-18T04:17:29.252Z,7.70
2018-08-18T04:18:29.189Z,7.00
2018-08-18T04:19:29.103Z,7.80
2018-08-18T04:20:29.025Z,7.90
2018-08-18T04:21:28.922Z,8.00
2018-08-18T04:22:28.843Z,8.50
2018-08-18T04:23:28.789Z,8.40
2018-08-18T04:24:28.679Z,8.60
2018-08-18T04:25:28.599Z,8.50
2018-08-18T04:28:10.932Z,8.50
2018-08-18T04:30:52.908Z,9.00
2018-08-18T04:31:52.828Z,9.00
2018-08-18T04:32:52.755Z,8.80
2018-08-18T04:33:52.675Z,9.00
2018-08-18T04:34:52.612Z,8.60
2018-08-18T04:35:52.540Z,8.00
2018-08-18T04:36:52.427Z,8.10
2018-08-18T04:37:52.351Z,7.40
2018-08-18T04:38:52.277Z,7.90
2018-08-18T04:39:52.212Z,8.00
2018-08-18T04:40:52.126Z,7.80
2018-08-18T04:41:52.028Z,7.30
2018-08-18T04:42:51.939Z,8.00
2018-08-18T04:45:34.005Z,8.60
2018-08-18T04:46:33.833Z,8.60
2018-08-18T04:47:33.745Z,8.60
2018-08-18T04:50:15.928Z,8.10
2018-08-18T04:51:16.850Z,7.70
2018-08-18T04:52:15.780Z,8.00
2018-08-18T04:53:15.675Z,7.60
2018-08-18T04:54:15.592Z,7.60
2018-08-18T04:56:57.483Z,8.40
2018-08-18T04:57:57.331Z,7.90
2018-08-18T04:58:57.252Z,8.20
2018-08-18T04:59:58.185Z,8.20
2018-08-18T05:00:57.105Z,8.00
2018-08-18T05:03:38.907Z,8.00
2018-08-18T05:04:38.832Z,8.50
2018-08-18T05:05:38.762Z,8.90
2018-08-18T05:08:20.910Z,7.80
2018-08-18T05:11:02.928Z,8.00
2018-08-18T05:12:02.856Z,7.80
2018-08-18T05:13:02.754Z,8.10
2018-08-18T05:14:02.674Z,8.70
2018-08-18T05:15:02.590Z,8.80
2018-08-18T05:16:03.525Z,8.30
2018-08-18T05:17:02.432Z,8.30
2018-08-18T05:18:02.365Z,8.50
2018-08-18T05:19:02.416Z,7.90
2018-08-18T05:20:02.199Z,8.20
2018-08-18T05:21:02.131Z,8.10
2018-08-18T05:22:02.037Z,8.00
2018-08-18T05:23:01.955Z,9.10
2018-08-18T05:24:01.878Z,9.20
2018-08-18T05:25:01.785Z,8.70
2018-08-18T05:26:02.726Z,8.50
2018-08-18T05:27:01.651Z,8.50
2018-08-18T05:28:01.553Z,8.50
2018-08-18T05:29:01.464Z,9.10
2018-08-18T05:30:01.393Z,9.30
2018-08-18T05:31:01.321Z,9.00
2018-08-18T05:32:01.277Z,9.20
2018-08-18T05:33:01.162Z,9.40
2018-08-18T05:35:43.427Z,9.50
2018-08-18T05:36:43.404Z,10.10
2018-08-18T05:37:43.274Z,9.90
2018-08-18T05:40:25.414Z,9.10
2018-08-18T05:41:25.367Z,8.70
2018-08-18T05:42:25.255Z,9.30
2018-08-18T05:43:25.193Z,9.00
2018-08-18T05:44:25.102Z,8.80
2018-08-18T05:45:25.024Z,9.40
2018-08-18T05:46:24.964Z,9.30
2018-08-18T05:47:25.889Z,8.60
2018-08-18T05:48:24.786Z,8.90
2018-08-18T05:51:06.927Z,8.30
2018-08-18T05:52:06.847Z,8.10
2018-08-18T05:53:06.786Z,9.00
2018-08-18T05:54:06.685Z,8.90
2018-08-18T05:55:06.624Z,8.50
2018-08-18T05:56:06.529Z,8.00
2018-08-18T05:57:06.442Z,8.20
2018-08-18T05:58:07.388Z,7.90
2018-08-18T05:59:06.277Z,8.10
2018-08-18T06:00:06.211Z,8.10
2018-08-18T06:01:06.125Z,8.10
2018-08-18T06:02:06.041Z,8.20
2018-08-18T06:03:05.990Z,8.20
2018-08-18T06:04:05.909Z,8.00
2018-08-18T06:05:05.809Z,8.10
2018-08-18T06:07:47.945Z,8.10
2018-08-18T06:08:47.868Z,7.90
2018-08-18T06:09:47.767Z,7.80
2018-08-18T06:10:47.691Z,7.90
2018-08-18T06:11:47.620Z,7.10
2018-08-18T06:12:47.535Z,7.40
2018-08-18T06:13:47.469Z,7.50
2018-08-18T06:14:47.377Z,6.90
2018-08-18T06:15:47.289Z,6.90
2018-08-18T06:16:47.235Z,6.80
2018-08-18T06:17:47.124Z,7.10
2018-08-18T06:18:47.069Z,6.90
2018-08-18T06:19:46.977Z,7.40
2018-08-18T06:20:46.893Z,7.20
2018-08-18T06:21:46.820Z,7.10
2018-08-18T06:22:46.751Z,6.50
2018-08-18T06:23:46.680Z,6.00
2018-08-18T06:26:28.940Z,6.40
2018-08-18T06:27:28.852Z,6.30
2018-08-18T06:28:28.784Z,6.20
2018-08-18T06:29:28.729Z,6.00
2018-08-18T06:30:28.624Z,6.10
2018-08-18T06:31:28.561Z,6.10
2018-08-18T06:32:28.458Z,6.50
2018-08-18T06:33:28.415Z,6.30
2018-08-18T06:34:28.378Z,6.30
2018-08-18T06:35:28.231Z,5.70
2018-08-18T06:36:28.154Z,6.50
2018-08-18T06:39:10.428Z,6.40
2018-08-18T06:40:10.468Z,6.80
2018-08-18T06:41:10.315Z,6.10
2018-08-18T06:42:10.243Z,6.00
2018-08-18T06:43:10.123Z,6.30
2018-08-18T06:44:10.072Z,6.30
2018-08-18T06:45:10.004Z,6.00
2018-08-18T06:46:09.910Z,6.10
2018-08-18T06:47:09.827Z,5.90
2018-08-18T06:49:51.971Z,6.10
2018-08-18T06:50:51.868Z,6.20
2018-08-18T06:51:51.803Z,5.80
2018-08-18T06:52:51.720Z,6.40
2018-08-18T06:53:51.632Z,6.20
2018-08-18T06:54:51.738Z,6.10
2018-08-18T06:55:51.473Z,5.90
2018-08-18T06:56:51.438Z,6.00
2018-08-18T06:57:51.328Z,5.70
2018-08-18T06:58:51.272Z,6.10
2018-08-18T06:59:51.210Z,5.90
2018-08-18T07:00:51.113Z,6.20
2018-08-18T07:01:51.052Z,6.40
2018-08-18T07:02:50.956Z,6.10
2018-08-18T07:03:50.868Z,5.70
2018-08-18T07:04:50.808Z,5.60
2018-08-18T07:05:50.800Z,6.00
2018-08-18T07:06:50.687Z,5.70
2018-08-18T07:07:50.572Z,6.00
2018-08-18T07:08:50.508Z,5.80
2018-08-18T07:09:50.423Z,5.60
2018-08-18T07:10:50.366Z,5.50
2018-08-18T07:11:50.269Z,5.10
2018-08-18T07:12:50.210Z,5.10
2018-08-18T07:13:50.129Z,4.60
2018-08-18T07:14:50.053Z,4.90
2018-08-18T07:15:50.007Z,4.90
2018-08-18T07:16:49.915Z,4.30
2018-08-18T07:17:49.819Z,4.60
2018-08-18T07:18:49.758Z,4.30
2018-08-18T07:19:49.697Z,4.30
2018-08-18T07:20:49.654Z,4.50
2018-08-18T07:21:49.538Z,4.40
2018-08-18T07:22:49.459Z,3.90
2018-08-18T07:23:49.388Z,4.00
2018-08-18T07:24:49.313Z,4.40
2018-08-18T07:25:49.236Z,3.70
2018-08-18T07:26:50.212Z,4.00
2018-08-18T07:27:49.090Z,3.50
2018-08-18T07:28:49.118Z,3.90
2018-08-18T07:29:48.938Z,4.30
2018-08-18T07:30:48.878Z,3.80
2018-08-18T07:31:48.820Z,3.60
2018-08-18T07:34:30.955Z,3.50
2018-08-18T07:37:13.048Z,3.90
2018-08-18T07:38:12.908Z,3.70
2018-08-18T07:39:12.882Z,3.70
2018-08-18T07:40:12.748Z,3.70
2018-08-18T07:41:12.677Z,3.80
2018-08-18T07:42:12.640Z,3.70
2018-08-18T07:43:12.544Z,3.80
2018-08-18T07:45:54.462Z,3.80
2018-08-18T07:46:54.402Z,3.90
2018-08-18T07:47:54.365Z,3.60
2018-08-18T07:48:54.263Z,3.80
2018-08-18T07:49:54.176Z,3.40
2018-08-18T07:50:54.106Z,3.70
2018-08-18T07:51:54.034Z,3.90
2018-08-18T07:52:54.019Z,3.40
2018-08-18T07:53:54.015Z,3.60
2018-08-18T07:54:53.824Z,3.70
2018-08-18T07:55:53.748Z,3.60
2018-08-18T07:56:53.696Z,3.60
2018-08-18T07:57:53.642Z,3.60
2018-08-18T08:00:35.469Z,3.90
2018-08-18T08:01:35.413Z,3.40
2018-08-18T08:02:35.326Z,3.40
2018-08-18T08:03:35.305Z,3.80
2018-08-18T08:04:35.184Z,3.40
2018-08-18T08:05:35.139Z,3.50
2018-08-18T08:06:35.056Z,3.30
2018-08-18T08:07:34.984Z,3.30
2018-08-18T08:08:34.993Z,3.50
2018-08-18T08:11:16.983Z,3.00
2018-08-18T08:12:16.914Z,3.30
2018-08-18T08:13:16.867Z,3.70
2018-08-18T08:14:16.780Z,3.40
2018-08-18T08:15:16.693Z,3.30
2018-08-18T08:16:16.632Z,3.60
2018-08-18T08:17:16.544Z,3.50
2018-08-18T08:18:17.619Z,3.20
2018-08-18T08:19:16.408Z,3.30
2018-08-18T08:20:16.338Z,3.40
2018-08-18T08:21:16.274Z,3.10
2018-08-18T08:23:58.504Z,3.30
2018-08-18T08:24:58.428Z,3.20
2018-08-18T08:25:58.359Z,3.80
2018-08-18T08:26:58.273Z,3.80
2018-08-18T08:27:58.194Z,3.30
2018-08-18T08:28:58.161Z,3.00
2018-08-18T08:29:58.054Z,3.20
2018-08-18T08:30:57.991Z,3.80
2018-08-18T08:31:57.919Z,3.30
2018-08-18T08:32:57.883Z,3.50
2018-08-18T08:33:57.794Z,3.80
2018-08-18T08:34:57.721Z,3.30
2018-08-18T08:35:57.634Z,3.20
2018-08-18T08:36:57.577Z,3.30
2018-08-18T08:37:57.509Z,3.40
2018-08-18T08:38:57.455Z,2.90
2018-08-18T08:39:57.365Z,3.00
2018-08-18T08:40:57.304Z,2.80
2018-08-18T08:41:57.221Z,2.40
2018-08-18T08:42:57.165Z,2.90
2018-08-18T08:43:57.121Z,2.90
2018-08-18T08:46:39.002Z,3.10
2018-08-18T08:49:21.032Z,3.10
2018-08-18T08:50:20.941Z,3.10
2018-08-18T08:51:20.849Z,2.80
2018-08-18T08:54:03.021Z,3.10
2018-08-18T08:55:03.941Z,3.00
2018-08-18T08:56:02.851Z,2.70
2018-08-18T08:57:02.792Z,2.40
2018-08-18T08:58:02.723Z,2.60
2018-08-18T08:59:02.673Z,2.60
2018-08-18T09:00:02.608Z,3.60
2018-08-18T09:01:02.537Z,3.20
2018-08-18T09:02:02.441Z,3.50
2018-08-18T09:03:02.434Z,3.80
2018-08-18T09:04:02.306Z,3.60
2018-08-18T09:05:02.270Z,3.50
2018-08-18T09:06:02.173Z,4.00
2018-08-18T09:07:02.114Z,3.50
2018-08-18T09:08:02.056Z,3.30
2018-08-18T09:09:02.000Z,3.80
2018-08-18T09:10:01.916Z,3.30
2018-08-18T09:11:01.835Z,3.50
2018-08-18T09:12:01.777Z,3.60
2018-08-18T09:14:44.020Z,3.50
2018-08-18T09:15:44.000Z,3.10
2018-08-18T09:16:43.867Z,3.50
2018-08-18T09:17:43.851Z,3.60
2018-08-18T09:18:43.732Z,3.10
2018-08-18T09:21:26.020Z,3.40
2018-08-18T09:22:25.956Z,3.10
2018-08-18T09:23:25.863Z,2.90
2018-08-18T09:24:25.823Z,2.90
2018-08-18T09:25:25.737Z,2.60
2018-08-18T09:26:26.729Z,2.90
2018-08-18T09:27:25.600Z,2.70
2018-08-18T09:28:25.565Z,3.40
2018-08-18T09:29:25.464Z,3.00
2018-08-18T09:30:25.443Z,2.90
2018-08-18T09:31:25.367Z,3.40
2018-08-18T09:32:25.294Z,3.50
2018-08-18T09:33:25.198Z,3.40
2018-08-18T09:34:25.146Z,3.20
2018-08-18T09:35:25.080Z,3.00
2018-08-18T09:36:25.020Z,3.00
2018-08-18T09:37:24.973Z,3.10
2018-08-18T09:38:24.880Z,3.40
2018-08-18T09:39:24.807Z,3.00
2018-08-18T09:40:24.748Z,3.30
2018-08-18T09:41:24.673Z,3.30
2018-08-18T09:42:24.647Z,3.40
2018-08-18T09:43:24.572Z,3.10
2018-08-18T09:44:24.482Z,3.00
2018-08-18T09:45:24.459Z,3.20
2018-08-18T09:46:24.387Z,2.80
2018-08-18T09:47:24.295Z,3.10
2018-08-18T09:48:24.234Z,3.80
2018-08-18T09:49:24.155Z,3.60
2018-08-18T09:50:24.090Z,3.80
2018-08-18T09:51:24.046Z,3.20
2018-08-18T09:52:23.999Z,3.20
2018-08-18T09:53:23.896Z,3.30
2018-08-18T09:54:23.830Z,3.70
2018-08-18T09:55:23.757Z,3.10
2018-08-18T09:58:06.078Z,4.00
2018-08-18T10:00:48.009Z,3.70
2018-08-18T10:03:30.048Z,3.60
2018-08-18T10:04:29.971Z,3.50
2018-08-18T10:05:29.881Z,3.50
2018-08-18T10:06:29.875Z,4.00
2018-08-18T10:07:29.772Z,3.80
2018-08-18T10:08:29.727Z,3.90
2018-08-18T10:09:29.623Z,4.10
2018-08-18T10:10:29.573Z,4.30
2018-08-18T10:11:29.509Z,3.70
2018-08-18T10:12:29.433Z,4.10
2018-08-18T10:13:29.400Z,3.60
2018-08-18T10:14:29.323Z,3.50
2018-08-18T10:15:29.282Z,3.90
2018-08-18T10:16:29.176Z,3.90
2018-08-18T10:17:29.111Z,4.20
2018-08-18T10:18:29.085Z,4.50
2018-08-18T10:19:28.988Z,4.10
2018-08-18T10:22:11.021Z,4.40
2018-08-18T10:23:10.967Z,4.80
2018-08-18T10:24:10.932Z,4.90
2018-08-18T10:26:53.029Z,4.00
2018-08-18T10:27:52.985Z,4.10
2018-08-18T10:28:52.889Z,3.90
2018-08-18T10:29:53.862Z,4.60
2018-08-18T10:30:52.764Z,5.00
2018-08-18T10:31:52.703Z,4.40
2018-08-18T10:32:52.635Z,4.30
2018-08-18T10:33:52.598Z,4.60
2018-08-18T10:34:52.527Z,4.30
2018-08-18T10:37:34.533Z,4.20
2018-08-18T10:38:34.481Z,4.70
2018-08-18T10:39:34.434Z,4.20
2018-08-18T10:40:34.347Z,4.10
2018-08-18T10:41:34.285Z,4.20
2018-08-18T10:42:34.215Z,4.30
2018-08-18T10:43:34.132Z,4.60
2018-08-18T10:44:34.103Z,4.60
2018-08-18T10:45:34.028Z,4.50
2018-08-18T10:48:16.036Z,4.60
2018-08-18T10:50:58.057Z,4.80
2018-08-18T10:53:40.047Z,4.40
2018-08-18T10:54:39.983Z,4.60
2018-08-18T10:55:39.922Z,5.30
2018-08-18T10:56:39.839Z,4.40
2018-08-18T10:57:39.769Z,4.50
2018-08-18T10:58:39.816Z,4.90
2018-08-18T10:59:39.646Z,4.80
2018-08-18T11:00:39.586Z,4.70
2018-08-18T11:01:39.510Z,4.30
2018-08-18T11:02:39.456Z,4.30
2018-08-18T11:03:39.394Z,4.60
2018-08-18T11:04:39.308Z,4.40
2018-08-18T11:05:39.253Z,4.30
2018-08-18T11:06:39.187Z,3.60
2018-08-18T11:07:39.110Z,3.60
2018-08-18T11:08:39.054Z,4.10
2018-08-18T11:09:38.988Z,4.20
2018-08-18T11:10:39.698Z,4.20
2018-08-18T11:11:38.837Z,4.70
2018-08-18T11:12:38.782Z,4.10
2018-08-18T11:13:38.717Z,4.70
2018-08-18T11:14:38.644Z,4.70
2018-08-18T11:15:38.607Z,4.80
2018-08-18T11:16:38.511Z,4.50
2018-08-18T11:17:38.442Z,4.10
2018-08-18T11:18:38.388Z,4.60
2018-08-18T11:19:38.315Z,4.40
2018-08-18T11:20:38.291Z,3.80
2018-08-18T11:21:38.261Z,4.10
2018-08-18T11:22:38.125Z,4.10
2018-08-18T11:23:38.055Z,3.70
2018-08-18T11:24:37.977Z,3.20
2018-08-18T11:25:37.895Z,4.10
2018-08-18T11:26:37.861Z,3.90
2018-08-18T11:27:37.766Z,3.40
2018-08-18T11:30:20.063Z,3.90
2018-08-18T11:31:20.017Z,4.30
2018-08-18T11:32:19.923Z,4.50
2018-08-18T11:33:19.847Z,4.00
2018-08-18T11:34:19.803Z,4.10
2018-08-18T11:37:02.082Z,4.70
2018-08-18T11:38:02.004Z,3.80
2018-08-18T11:39:01.918Z,4.10
2018-08-18T11:40:01.872Z,4.30
2018-08-18T11:41:01.810Z,3.90
2018-08-18T11:42:02.747Z,3.90
2018-08-18T11:43:01.664Z,3.50
2018-08-18T11:44:01.678Z,3.80
2018-08-18T11:45:01.533Z,4.40
2018-08-18T11:47:43.570Z,3.70
2018-08-18T11:50:25.559Z,3.80
2018-08-18T11:51:26.623Z,3.60
2018-08-18T11:52:25.450Z,3.70
2018-08-18T11:53:25.468Z,3.10
2018-08-18T11:54:25.316Z,3.40
2018-08-18T11:55:25.285Z,3.20
2018-08-18T11:56:25.197Z,3.10
2018-08-18T11:57:25.237Z,3.50
2018-08-18T11:58:25.034Z,3.60
2018-08-18T11:59:25.072Z,3.60
2018-08-18T12:00:24.924Z,3.40
2018-08-18T12:01:24.911Z,3.90
2018-08-18T12:02:24.796Z,3.50
2018-08-18T12:03:24.828Z,3.80
2018-08-18T12:04:24.652Z,3.10
2018-08-18T12:05:24.635Z,4.70
2018-08-18T12:06:24.509Z,4.50
2018-08-18T12:18:47.266Z,5.60
2018-08-18T12:19:47.145Z,3.10
2018-08-18T12:20:47.148Z,3.10
2018-08-18T12:21:46.995Z,4.00
2018-08-18T12:22:46.963Z,3.10
2018-08-18T12:23:46.883Z,2.80
2018-08-18T12:24:46.873Z,3.60
2018-08-18T12:25:46.741Z,3.80
2018-08-18T12:26:46.680Z,2.80
2018-08-18T12:27:46.576Z,2.80
2018-08-18T12:28:46.939Z,2.90
2018-08-18T12:37:28.567Z,3.10
2018-08-18T12:38:28.426Z,2.90
2018-08-18T12:39:28.487Z,2.80
2018-08-18T12:40:28.272Z,3.00
2018-08-18T12:41:28.267Z,2.60
2018-08-18T12:42:28.188Z,2.40
2018-08-18T12:43:28.171Z,2.60
2018-08-18T12:44:27.993Z,2.50
2018-08-18T12:45:27.971Z,2.50
2018-08-18T12:46:27.844Z,2.60
2018-08-18T12:47:27.883Z,2.40
2018-08-18T12:48:27.687Z,2.50
2018-08-18T12:49:27.766Z,2.70
2018-08-18T12:50:27.542Z,2.80
2018-08-18T12:51:27.485Z,2.70
2018-08-18T12:52:27.408Z,2.70
2018-08-18T12:53:27.503Z,2.30
2018-08-18T12:54:27.239Z,2.80
2018-08-18T12:55:27.267Z,2.90
2018-08-18T12:56:27.093Z,3.70
2018-08-18T12:57:27.118Z,4.70
2018-08-18T12:58:27.101Z,3.20
2018-08-18T12:59:26.936Z,2.90
2018-08-18T13:00:26.817Z,2.60
2018-08-18T13:01:26.857Z,2.60
2018-08-18T13:02:26.640Z,2.20
2018-08-18T13:03:26.655Z,2.60
2018-08-18T13:04:26.597Z,2.80
2018-08-18T13:05:26.510Z,2.70
2018-08-18T13:06:26.345Z,2.60
2018-08-18T13:07:26.377Z,2.70
2018-08-18T13:08:26.196Z,3.10
2018-08-18T13:09:26.176Z,2.60
2018-08-18T13:10:26.091Z,2.30
2018-08-18T13:11:26.150Z,2.70
2018-08-18T13:12:25.907Z,2.90
2018-08-18T13:13:25.897Z,2.50
2018-08-18T13:14:25.842Z,2.30
2018-08-18T13:15:25.863Z,2.90
2018-08-18T13:16:25.629Z,2.60
2018-08-18T13:17:25.651Z,2.80
2018-08-18T13:18:25.484Z,3.10
2018-08-18T13:19:25.437Z,2.70
2018-08-18T13:20:25.317Z,8.50
2018-08-18T13:21:25.347Z,4.00
2018-08-18T13:22:25.185Z,3.20
2018-08-18T13:23:25.153Z,3.00
2018-08-18T13:24:25.051Z,4.20
2018-08-18T13:25:25.064Z,4.90
2018-08-18T13:26:24.904Z,7.30
2018-08-18T13:27:24.870Z,11.10
2018-08-18T13:28:24.713Z,5.10
2018-08-18T13:29:24.679Z,5.80
2018-08-18T13:30:24.569Z,3.40
2018-08-18T13:31:24.613Z,3.00
2018-08-18T13:32:24.439Z,6.10
2018-08-18T13:33:24.426Z,7.90
2018-08-18T13:34:24.290Z,5.40
2018-08-18T13:35:24.303Z,3.30
2018-08-18T13:36:24.120Z,2.90
2018-08-18T13:37:24.115Z,2.80
2018-08-18T13:38:23.998Z,3.00
2018-08-18T13:39:23.932Z,2.70
2018-08-18T13:40:23.884Z,3.00
2018-08-18T13:41:23.833Z,3.30
2018-08-18T13:42:23.676Z,2.60
2018-08-18T13:43:23.678Z,3.10
2018-08-18T13:44:23.552Z,2.90
2018-08-18T13:45:23.561Z,2.70
2018-08-18T13:46:29.439Z,2.80
2018-08-18T13:47:23.320Z,2.70
2018-08-18T13:48:23.230Z,3.00
2018-08-18T13:49:23.165Z,2.50
2018-08-18T13:50:23.087Z,2.90
2018-08-18T13:51:22.999Z,2.90
2018-08-18T13:52:22.948Z,3.20
2018-08-18T13:53:22.855Z,2.50
2018-08-18T13:54:22.777Z,2.50
2018-08-18T13:55:22.745Z,2.30
2018-08-18T13:56:22.623Z,2.40
2018-08-18T13:57:22.582Z,2.50
2018-08-18T13:58:22.483Z,2.40
2018-08-18T13:59:22.418Z,2.50
2018-08-18T14:00:22.360Z,2.50
2018-08-18T14:01:22.265Z,2.90
2018-08-18T14:02:22.201Z,2.70
2018-08-18T14:03:22.109Z,2.60
2018-08-18T14:04:22.065Z,2.50
2018-08-18T14:05:23.011Z,2.80
2018-08-18T14:06:21.921Z,3.40
2018-08-18T14:09:04.103Z,6.90
2018-08-18T14:10:04.078Z,7.40
2018-08-18T14:11:04.038Z,2.70
2018-08-18T14:12:03.904Z,4.40
2018-08-18T14:13:03.816Z,2.80
2018-08-18T14:14:05.804Z,3.00
2018-08-18T14:15:03.673Z,2.80
2018-08-18T14:16:03.677Z,2.80
2018-08-18T14:17:03.533Z,2.60
2018-08-18T14:18:03.469Z,2.70
2018-08-18T14:19:03.399Z,2.40
2018-08-18T14:20:03.356Z,2.70
2018-08-18T14:21:03.215Z,2.60
2018-08-18T14:22:03.170Z,2.40
2018-08-18T14:23:03.113Z,2.80
2018-08-18T14:24:03.003Z,2.50
2018-08-18T14:25:02.932Z,2.30
2018-08-18T14:26:02.844Z,2.10
2018-08-18T14:27:02.792Z,2.40
2018-08-18T14:28:02.698Z,2.50
2018-08-18T14:29:02.652Z,2.30
2018-08-18T14:30:02.591Z,2.70
2018-08-18T14:31:02.560Z,2.90
2018-08-18T14:32:02.398Z,3.00
2018-08-18T14:33:02.331Z,3.10
2018-08-18T14:34:02.313Z,2.50
2018-08-18T14:35:02.174Z,2.30
2018-08-18T14:36:02.122Z,2.50
2018-08-18T14:37:02.041Z,2.60
2018-08-18T14:38:01.961Z,2.10
2018-08-18T14:39:01.882Z,2.40
2018-08-18T14:40:01.829Z,2.30
2018-08-18T14:41:01.821Z,2.50
2018-08-18T14:42:01.667Z,2.50
2018-08-18T14:43:01.588Z,2.40
2018-08-18T14:44:01.538Z,2.50
2018-08-18T14:45:01.483Z,2.50
2018-08-18T14:46:01.356Z,2.50
2018-08-18T14:47:01.295Z,2.70
2018-08-18T14:48:01.206Z,2.20
2018-08-18T14:49:01.124Z,2.10
2018-08-18T14:50:01.063Z,2.40
2018-08-18T14:51:00.972Z,2.30
2018-08-18T14:52:01.940Z,2.80
2018-08-18T14:53:00.842Z,2.60
2018-08-18T14:54:00.813Z,2.20
2018-08-18T14:55:00.701Z,2.50
2018-08-18T14:56:00.622Z,2.50
2018-08-18T14:57:00.553Z,2.40
2018-08-18T14:58:00.465Z,2.80
2018-08-18T14:59:00.380Z,2.50
2018-08-18T15:00:00.315Z,2.20
2018-08-18T15:01:00.235Z,2.50
2018-08-18T15:02:00.186Z,2.70
2018-08-18T15:03:00.094Z,2.40
2018-08-18T15:04:00.009Z,2.30
2018-08-18T15:04:59.949Z,2.40
2018-08-18T15:07:42.151Z,2.70
2018-08-18T15:08:42.148Z,2.20
2018-08-18T15:09:41.980Z,2.20
2018-08-18T15:10:41.924Z,2.70
2018-08-18T15:11:41.829Z,2.60
2018-08-18T15:12:41.792Z,2.50
2018-08-18T15:13:41.683Z,2.60
2018-08-18T15:14:41.620Z,2.30
2018-08-18T15:15:41.670Z,2.10
2018-08-18T15:16:41.460Z,2.50
2018-08-18T15:17:41.588Z,2.10
2018-08-18T15:18:41.315Z,2.00
2018-08-18T15:19:41.249Z,2.90
2018-08-18T15:20:41.163Z,2.70
2018-08-18T15:21:41.083Z,2.40
2018-08-18T15:22:41.090Z,4.10
2018-08-18T15:23:40.938Z,2.80